Time,TemperatureF,DewpointF,PressureIn,WindDirection,WindDirectionDegrees,WindSpeedMPH,WindSpeedGustMPH,Humidity,HourlyPrecipIn,Conditions,Clouds,dailyrainin,SoftwareType,DateUTC
2013-03-29 00:03:00,39.0,31.0,30.01,ENE,68,0.0,0.0,72,0.00,,,0.00,,2013-03-29 04:03:00,
2013-03-29 00:13:00,39.0,31.0,30.01,ENE,68,0.0,0.0,72,0.00,,,0.00,,2013-03-29 04:13:00,
2013-03-29 00:22:00,39.0,31.0,30.01,ENE,68,0.0,0.0,73,0.00,,,0.00,,2013-03-29 04:22:00,
2013-03-29 00:33:00,39.0,31.0,30.01,ENE,68,0.0,0.0,73,0.00,,,0.00,,2013-03-29 04:33:00,
2013-03-29 00:43:00,39.0,31.0,30.01,ENE,68,0.0,0.0,73,0.00,,,0.00,,2013-03-29 04:43:00,
2013-03-29 00:52:00,39.0,31.0,30.01,ENE,68,0.0,0.0,73,0.00,,,0.00,,2013-03-29 04:52:00,
2013-03-29 01:03:00,39.0,31.0,30.01,ENE,68,0.0,0.0,73,0.00,,,0.00,,2013-03-29 05:03:00,
2013-03-29 01:12:00,39.0,31.0,30.01,ENE,68,0.0,0.0,73,0.00,,,0.00,,2013-03-29 05:12:00,
2013-03-29 01:23:00,39.0,31.0,30.01,ENE,68,0.0,0.0,73,0.00,,,0.00,,2013-03-29 05:23:00,
2013-03-29 01:33:00,39.0,31.0,30.01,ENE,68,0.0,0.0,73,0.00,,,0.00,,2013-03-29 05:33:00,
2013-03-29 01:43:00,39.0,31.0,30.01,ENE,68,0.0,0.0,73,0.00,,,0.00,,2013-03-29 05:43:00,
2013-03-29 01:52:00,39.0,31.0,30.01,ENE,68,0.0,0.0,73,0.00,,,0.00,,2013-03-29 05:52:00,
2013-03-29 02:02:00,39.0,31.0,30.01,ENE,68,0.0,0.0,73,0.00,,,0.00,,2013-03-29 06:02:00,
2013-03-29 02:12:00,39.0,31.0,30.01,ENE,68,0.0,0.0,73,0.00,,,0.00,,2013-03-29 06:12:00,
2013-03-29 02:23:00,39.0,31.0,30.01,NNW,338,0.0,0.0,73,0.00,,,0.00,,2013-03-29 06:23:00,
2013-03-29 02:32:00,39.0,31.0,30.01,NNW,338,0.0,0.0,73,0.00,,,0.00,,2013-03-29 06:32:00,
2013-03-29 02:42:00,39.0,31.0,30.01,NNW,338,0.0,0.0,73,0.00,,,0.00,,2013-03-29 06:42:00,
2013-03-29 02:52:00,39.0,31.0,30.01,NNW,338,0.0,0.0,72,0.00,,,0.00,,2013-03-29 06:52:00,
2013-03-29 03:03:00,39.0,31.0,30.01,NNW,338,0.0,0.0,72,0.00,,,0.00,,2013-03-29 07:03:00,
2013-03-29 03:12:00,39.0,31.0,30.01,NNW,338,0.0,0.0,72,0.00,,,0.00,,2013-03-29 07:12:00,
2013-03-29 03:22:00,40.0,32.0,30.02,WNW,293,0.0,0.0,72,0.00,,,0.00,,2013-03-29 07:22:00,
2013-03-29 03:32:00,39.0,31.0,30.02,NNE,23,0.0,0.0,72,0.00,,,0.00,,2013-03-29 07:32:00,
2013-03-29 03:42:00,39.0,31.0,30.02,NNE,23,0.0,0.0,72,0.00,,,0.00,,2013-03-29 07:42:00,
2013-03-29 03:52:00,39.0,30.0,30.02,NNE,23,0.0,0.0,71,0.00,,,0.00,,2013-03-29 07:52:00,
2013-03-29 04:02:00,38.0,30.0,30.02,NNE,23,0.0,0.0,72,0.00,,,0.00,,2013-03-29 08:02:00,
2013-03-29 04:12:00,38.0,30.0,30.02,NNE,23,0.0,0.0,72,0.00,,,0.00,,2013-03-29 08:12:00,
2013-03-29 04:22:00,37.0,29.0,30.02,NNE,23,0.0,0.0,73,0.00,,,0.00,,2013-03-29 08:22:00,
2013-03-29 04:32:00,37.0,29.0,30.02,NW,315,0.0,0.0,74,0.00,,,0.00,,2013-03-29 08:32:00,
2013-03-29 04:42:00,37.0,29.0,30.02,NW,315,0.0,0.0,74,0.00,,,0.00,,2013-03-29 08:42:00,
2013-03-29 04:53:00,37.0,29.0,30.01,NW,315,0.0,0.0,74,0.00,,,0.00,,2013-03-29 08:53:00,
2013-03-29 05:02:00,37.0,30.0,30.02,NW,315,0.0,0.0,75,0.00,,,0.00,,2013-03-29 09:02:00,
2013-03-29 05:13:00,37.0,30.0,30.02,NW,315,0.0,0.0,75,0.00,,,0.00,,2013-03-29 09:13:00,
2013-03-29 05:22:00,37.0,30.0,30.02,NW,315,0.0,0.0,75,0.00,,,0.00,,2013-03-29 09:22:00,
2013-03-29 05:33:00,37.0,30.0,30.01,WNW,293,0.0,0.0,75,0.00,,,0.00,,2013-03-29 09:33:00,
2013-03-29 05:43:00,37.0,30.0,30.01,WNW,293,0.0,0.0,75,0.00,,,0.00,,2013-03-29 09:43:00,
2013-03-29 05:52:00,36.0,29.0,30.02,WNW,293,0.0,0.0,76,0.00,,,0.00,,2013-03-29 09:52:00,
2013-03-29 06:03:00,36.0,29.0,30.01,WNW,293,0.0,0.0,76,0.00,,,0.00,,2013-03-29 10:03:00,
2013-03-29 06:12:00,36.0,29.0,30.01,WNW,293,0.0,0.0,76,0.00,,,0.00,,2013-03-29 10:12:00,
2013-03-29 06:23:00,35.0,29.0,30.02,WNW,293,0.0,0.0,77,0.00,,,0.00,,2013-03-29 10:23:00,
2013-03-29 06:33:00,35.0,29.0,30.02,WNW,293,0.0,0.0,77,0.00,,,0.00,,2013-03-29 10:33:00,
2013-03-29 06:42:00,35.0,29.0,30.02,WNW,293,0.0,0.0,77,0.00,,,0.00,,2013-03-29 10:42:00,
2013-03-29 06:53:00,35.0,29.0,30.02,WNW,293,0.0,0.0,77,0.00,,,0.00,,2013-03-29 10:53:00,
2013-03-29 07:03:00,35.0,29.0,30.02,WNW,293,0.0,0.0,77,0.00,,,0.00,,2013-03-29 11:03:00,
2013-03-29 07:12:00,35.0,29.0,30.02,WNW,293,0.0,0.0,77,0.00,,,0.00,,2013-03-29 11:12:00,
2013-03-29 07:23:00,35.0,29.0,30.03,WNW,293,0.0,0.0,77,0.00,,,0.00,,2013-03-29 11:23:00,
2013-03-29 07:33:00,35.0,29.0,30.03,WNW,293,0.0,0.0,77,0.00,,,0.00,,2013-03-29 11:33:00,
2013-03-29 07:42:00,35.0,29.0,30.03,WNW,293,0.0,0.0,77,0.00,,,0.00,,2013-03-29 11:42:00,
2013-03-29 07:53:00,35.0,29.0,30.03,WNW,293,0.0,0.0,78,0.00,,,0.00,,2013-03-29 11:53:00,
2013-03-29 08:03:00,36.0,30.0,30.04,WNW,293,0.0,0.0,78,0.00,,,0.00,,2013-03-29 12:03:00,
2013-03-29 08:12:00,36.0,30.0,30.04,WNW,293,0.0,0.0,78,0.00,,,0.00,,2013-03-29 12:12:00,
2013-03-29 08:22:00,38.0,31.0,30.03,North,0,0.0,0.0,77,0.00,,,0.00,,2013-03-29 12:22:00,
2013-03-29 08:32:00,39.0,32.0,30.04,North,0,0.0,0.0,76,0.00,,,0.00,,2013-03-29 12:32:00,
2013-03-29 08:42:00,39.0,32.0,30.04,North,0,0.0,0.0,76,0.00,,,0.00,,2013-03-29 12:42:00,
2013-03-29 08:53:00,40.0,32.0,30.04,NNE,14,4.0,5.0,74,0.00,,,0.00,,2013-03-29 12:53:00,
2013-03-29 09:03:00,40.0,32.0,30.04,NNE,23,0.0,5.0,73,0.00,,,0.00,,2013-03-29 13:03:00,
2013-03-29 09:12:00,40.0,32.0,30.04,NNE,23,0.0,5.0,73,0.00,,,0.00,,2013-03-29 13:12:00,
2013-03-29 09:22:00,42.0,33.0,30.04,WNW,293,0.0,0.0,71,0.00,,,0.00,,2013-03-29 13:22:00,
2013-03-29 09:32:00,43.0,34.0,30.04,NW,315,0.0,0.0,69,0.00,,,0.00,,2013-03-29 13:32:00,
2013-03-29 09:42:00,43.0,34.0,30.04,NW,315,0.0,0.0,69,0.00,,,0.00,,2013-03-29 13:42:00,
2013-03-29 09:53:00,44.0,34.0,30.04,NNW,338,0.0,0.0,67,0.00,,,0.00,,2013-03-29 13:53:00,
2013-03-29 10:03:00,45.0,34.0,30.04,NNW,338,0.0,7.0,66,0.00,,,0.00,,2013-03-29 14:03:00,
2013-03-29 10:12:00,45.0,34.0,30.04,NNW,338,0.0,7.0,66,0.00,,,0.00,,2013-03-29 14:12:00,
2013-03-29 10:22:00,47.0,35.0,30.04,West,270,0.0,0.0,63,0.00,,,0.00,,2013-03-29 14:22:00,
2013-03-29 10:32:00,48.0,35.0,30.04,North,0,0.0,0.0,61,0.00,,,0.00,,2013-03-29 14:32:00,
2013-03-29 10:42:00,48.0,35.0,30.04,North,0,0.0,0.0,61,0.00,,,0.00,,2013-03-29 14:42:00,
2013-03-29 10:53:00,49.0,35.0,30.04,West,270,0.0,2.0,59,0.00,,,0.00,,2013-03-29 14:53:00,
2013-03-29 11:02:00,50.0,35.0,30.03,East,90,0.0,0.0,57,0.00,,,0.00,,2013-03-29 15:02:00,
2013-03-29 11:12:00,50.0,35.0,30.03,East,90,0.0,0.0,57,0.00,,,0.00,,2013-03-29 15:12:00,
2013-03-29 11:22:00,51.0,35.0,30.04,NNW,338,0.0,4.0,55,0.00,,,0.00,,2013-03-29 15:22:00,
2013-03-29 11:33:00,52.0,35.0,30.03,WNW,293,4.0,4.0,53,0.00,,,0.00,,2013-03-29 15:33:00,
2013-03-29 11:43:00,52.0,35.0,30.03,WNW,293,4.0,4.0,53,0.00,,,0.00,,2013-03-29 15:43:00,
2013-03-29 11:53:00,53.0,35.0,30.03,NE,45,3.0,3.0,50,0.00,,,0.00,,2013-03-29 15:53:00,
2013-03-29 12:03:00,54.0,35.0,30.03,West,270,0.0,3.0,49,0.00,,,0.00,,2013-03-29 16:03:00,
2013-03-29 12:13:00,54.0,35.0,30.03,West,270,0.0,3.0,49,0.00,,,0.00,,2013-03-29 16:13:00,
2013-03-29 12:23:00,56.0,36.0,30.02,NE,45,4.0,7.0,47,0.00,,,0.00,,2013-03-29 16:23:00,
2013-03-29 12:33:00,57.0,36.0,30.02,NE,45,5.0,5.0,45,0.00,,,0.00,,2013-03-29 16:33:00,
2013-03-29 12:43:00,57.0,36.0,30.02,NE,45,5.0,5.0,45,0.00,,,0.00,,2013-03-29 16:43:00,
2013-03-29 12:53:00,67.0,40.0,30.01,NNW,338,0.0,2.0,37,0.00,,,0.00,,2013-03-29 16:53:00,
2013-03-29 13:03:00,70.0,40.0,30.01,NE,45,5.0,7.0,33,0.00,,,0.00,,2013-03-29 17:03:00,
2013-03-29 13:12:00,70.0,40.0,30.01,NE,45,5.0,7.0,33,0.00,,,0.00,,2013-03-29 17:12:00,
2013-03-29 13:23:00,74.0,40.0,30.00,WNW,285,8.0,8.0,29,0.00,,,0.00,,2013-03-29 17:23:00,
2013-03-29 13:33:00,75.0,40.0,30.00,WSW,248,3.0,3.0,28,0.00,,,0.00,,2013-03-29 17:33:00,
2013-03-29 13:43:00,75.0,40.0,30.00,WSW,248,3.0,3.0,28,0.00,,,0.00,,2013-03-29 17:43:00,
2013-03-29 13:53:00,72.0,36.0,29.99,WNW,293,0.0,7.0,27,0.00,,,0.00,,2013-03-29 17:53:00,
2013-03-29 14:02:00,67.0,35.0,29.99,WNW,293,0.0,5.0,30,0.00,,,0.00,,2013-03-29 18:02:00,
2013-03-29 14:12:00,67.0,35.0,29.99,WNW,293,0.0,5.0,30,0.00,,,0.00,,2013-03-29 18:12:00,
2013-03-29 14:23:00,62.0,33.0,29.98,NE,45,0.0,0.0,33,0.00,,,0.00,,2013-03-29 18:23:00,
2013-03-29 14:32:00,60.0,31.0,29.98,West,264,5.0,8.0,33,0.00,,,0.00,,2013-03-29 18:32:00,
2013-03-29 14:42:00,60.0,31.0,29.98,West,264,5.0,8.0,33,0.00,,,0.00,,2013-03-29 18:42:00,
2013-03-29 14:53:00,59.0,31.0,29.97,NW,315,4.0,4.0,34,0.00,,,0.00,,2013-03-29 18:53:00,
2013-03-29 15:02:00,58.0,31.0,29.97,West,279,3.0,4.0,35,0.00,,,0.00,,2013-03-29 19:02:00,
2013-03-29 15:12:00,59.0,31.0,29.96,NNW,345,3.0,3.0,35,0.00,,,0.00,,2013-03-29 19:12:00,
2013-03-29 15:23:00,59.0,31.0,29.96,NNW,345,3.0,3.0,35,0.00,,,0.00,,2013-03-29 19:23:00,
2013-03-29 15:33:00,59.0,31.0,29.97,WNW,293,6.0,6.0,35,0.00,,,0.00,,2013-03-29 19:33:00,
2013-03-29 15:42:00,59.0,31.0,29.97,WNW,293,6.0,6.0,35,0.00,,,0.00,,2013-03-29 19:42:00,
2013-03-29 15:53:00,57.0,30.0,29.96,WSW,248,0.0,5.0,35,0.00,,,0.00,,2013-03-29 19:53:00,
2013-03-29 16:02:00,61.0,32.0,29.96,West,274,4.0,7.0,34,0.00,,,0.00,,2013-03-29 20:02:00,
2013-03-29 16:12:00,61.0,32.0,29.96,West,274,4.0,7.0,34,0.00,,,0.00,,2013-03-29 20:12:00,
2013-03-29 16:22:00,58.0,31.0,29.96,North,0,0.0,4.0,35,0.00,,,0.00,,2013-03-29 20:22:00,
2013-03-29 16:33:00,56.0,29.0,29.96,NNW,334,4.0,5.0,36,0.00,,,0.00,,2013-03-29 20:33:00,
2013-03-29 16:42:00,56.0,29.0,29.96,NNW,334,4.0,5.0,36,0.00,,,0.00,,2013-03-29 20:42:00,
2013-03-29 16:52:00,58.0,31.0,29.96,WNW,293,4.0,8.0,36,0.00,,,0.00,,2013-03-29 20:52:00,
2013-03-29 17:02:00,58.0,31.0,29.96,WNW,293,2.0,3.0,36,0.00,,,0.00,,2013-03-29 21:02:00,
2013-03-29 17:12:00,58.0,31.0,29.96,WNW,293,2.0,3.0,36,0.00,,,0.00,,2013-03-29 21:12:00,
2013-03-29 17:22:00,57.0,30.0,29.96,West,270,3.0,5.0,36,0.00,,,0.00,,2013-03-29 21:22:00,
2013-03-29 17:33:00,56.0,30.0,29.96,NW,304,3.0,5.0,37,0.00,,,0.00,,2013-03-29 21:33:00,
2013-03-29 17:43:00,56.0,30.0,29.96,NW,304,3.0,5.0,37,0.00,,,0.00,,2013-03-29 21:43:00,
2013-03-29 17:53:00,53.0,29.0,29.96,North,7,4.0,6.0,39,0.00,,,0.00,,2013-03-29 21:53:00,
2013-03-29 18:03:00,52.0,28.0,29.97,NE,45,0.0,4.0,40,0.00,,,0.00,,2013-03-29 22:03:00,
2013-03-29 18:13:00,52.0,28.0,29.97,NE,45,0.0,4.0,40,0.00,,,0.00,,2013-03-29 22:13:00,
2013-03-29 18:23:00,61.0,33.0,29.97,WSW,248,4.0,5.0,35,0.00,,,0.00,,2013-03-29 22:23:00,
2013-03-29 18:33:00,59.0,31.0,29.97,WSW,248,5.0,6.0,35,0.00,,,0.00,,2013-03-29 22:33:00,
2013-03-29 18:42:00,59.0,31.0,29.97,WSW,248,5.0,6.0,35,0.00,,,0.00,,2013-03-29 22:42:00,
2013-03-29 18:54:00,53.0,28.0,29.97,NW,315,0.0,1.0,38,0.00,,,0.00,,2013-03-29 22:54:00,
2013-03-29 19:03:00,51.0,27.0,29.98,NNE,23,0.0,1.0,39,0.00,,,0.00,,2013-03-29 23:03:00,
2013-03-29 19:12:00,51.0,27.0,29.98,NNE,23,0.0,1.0,39,0.00,,,0.00,,2013-03-29 23:12:00,
2013-03-29 19:22:00,49.0,26.0,29.98,NE,45,0.0,0.0,41,0.00,,,0.00,,2013-03-29 23:22:00,
2013-03-29 19:32:00,48.0,26.0,29.98,NNE,23,4.0,4.0,42,0.00,,,0.00,,2013-03-29 23:32:00,
2013-03-29 19:42:00,48.0,26.0,29.98,NNE,23,4.0,4.0,42,0.00,,,0.00,,2013-03-29 23:42:00,
2013-03-29 19:53:00,47.0,26.0,29.98,WNW,293,0.0,0.0,43,0.00,,,0.00,,2013-03-29 23:53:00,
2013-03-29 20:03:00,46.0,25.0,29.98,WNW,293,0.0,0.0,44,0.00,,,0.00,,2013-03-30 00:03:00,
2013-03-29 20:12:00,46.0,25.0,29.98,WNW,293,0.0,0.0,44,0.00,,,0.00,,2013-03-30 00:12:00,
2013-03-29 20:22:00,46.0,26.0,29.99,NNW,338,0.0,0.0,45,0.00,,,0.00,,2013-03-30 00:22:00,
2013-03-29 20:32:00,45.0,25.0,30.00,North,0,0.0,0.0,46,0.00,,,0.00,,2013-03-30 00:32:00,
2013-03-29 20:42:00,45.0,25.0,30.00,North,0,0.0,0.0,46,0.00,,,0.00,,2013-03-30 00:42:00,
2013-03-29 20:53:00,45.0,26.0,30.00,NNE,23,0.0,7.0,47,0.00,,,0.00,,2013-03-30 00:53:00,
2013-03-29 21:03:00,44.0,26.0,30.01,NW,315,0.0,0.0,48,0.00,,,0.00,,2013-03-30 01:03:00,
2013-03-29 21:12:00,44.0,26.0,30.01,NW,315,0.0,0.0,48,0.00,,,0.00,,2013-03-30 01:12:00,
2013-03-29 21:22:00,44.0,26.0,30.02,North,8,4.0,5.0,49,0.00,,,0.00,,2013-03-30 01:22:00,
2013-03-29 21:33:00,44.0,26.0,30.02,North,0,0.0,5.0,49,0.00,,,0.00,,2013-03-30 01:33:00,
2013-03-29 21:43:00,44.0,26.0,30.02,North,0,0.0,5.0,49,0.00,,,0.00,,2013-03-30 01:43:00,
2013-03-29 21:53:00,44.0,26.0,30.02,NE,45,0.0,0.0,49,0.00,,,0.00,,2013-03-30 01:53:00,
2013-03-29 22:03:00,44.0,27.0,30.03,NNE,23,0.0,8.0,50,0.00,,,0.00,,2013-03-30 02:03:00,
2013-03-29 22:12:00,44.0,27.0,30.03,NNE,23,0.0,8.0,50,0.00,,,0.00,,2013-03-30 02:12:00,
2013-03-29 22:22:00,44.0,27.0,30.03,North,0,7.0,7.0,50,0.00,,,0.00,,2013-03-30 02:22:00,
2013-03-29 22:33:00,44.0,27.0,30.03,North,0,0.0,7.0,50,0.00,,,0.00,,2013-03-30 02:33:00,
2013-03-29 22:42:00,44.0,27.0,30.03,North,0,0.0,7.0,50,0.00,,,0.00,,2013-03-30 02:42:00,
2013-03-29 22:53:00,44.0,27.0,30.03,NE,45,0.0,0.0,51,0.00,,,0.00,,2013-03-30 02:53:00,
2013-03-29 23:03:00,44.0,27.0,30.03,NW,315,0.0,0.0,51,0.00,,,0.00,,2013-03-30 03:03:00,
2013-03-29 23:12:00,44.0,28.0,30.03,North,0,0.0,0.0,52,0.00,,,0.00,,2013-03-30 03:12:00,
2013-03-29 23:22:00,44.0,28.0,30.03,North,0,0.0,0.0,52,0.00,,,0.00,,2013-03-30 03:22:00,
2013-03-29 23:33:00,43.0,27.0,30.03,NNE,23,0.0,0.0,52,0.00,,,0.00,,2013-03-30 03:33:00,
2013-03-29 23:43:00,43.0,27.0,30.03,NNE,23,0.0,0.0,52,0.00,,,0.00,,2013-03-30 03:43:00,
2013-03-29 23:53:00,43.0,27.0,30.03,North,0,0.0,0.0,52,0.00,,,0.00,,2013-03-30 03:53:00,